sensor_id;sensor_type;location;lat;lon;timestamp;P1;durP1;ratioP1;P2;durP2;ratioP2
31676;SDS011;18385;51.572;6.578;2022-12-07T00:06:01;13.55;;;6.28;;
31676;SDS011;18385;51.572;6.578;2022-12-07T00:08:28;12.13;;;6.45;;
31676;SDS011;18385;51.572;6.578;2022-12-07T00:10:55;11.88;;;6.07;;
31676;SDS011;18385;51.572;6.578;2022-12-07T00:13:30;11.13;;;5.93;;
31676;SDS011;18385;51.572;6.578;2022-12-07T00:15:59;12.27;;;6.50;;
31676;SDS011;18385;51.572;6.578;2022-12-07T00:18:26;10.20;;;6.03;;
31676;SDS011;18385;51.572;6.578;2022-12-07T00:20:52;12.05;;;6.03;;
31676;SDS011;18385;51.572;6.578;2022-12-07T00:23:18;12.50;;;6.40;;
31676;SDS011;18385;51.572;6.578;2022-12-07T00:25:43;10.52;;;5.97;;
31676;SDS011;18385;51.572;6.578;2022-12-07T00:28:09;11.57;;;6.72;;
31676;SDS011;18385;51.572;6.578;2022-12-07T00:30:36;14.75;;;6.82;;
31676;SDS011;18385;51.572;6.578;2022-12-07T00:33:02;10.60;;;6.43;;
31676;SDS011;18385;51.572;6.578;2022-12-07T00:35:28;10.57;;;6.95;;
31676;SDS011;18385;51.572;6.578;2022-12-07T00:37:53;11.80;;;6.63;;
31676;SDS011;18385;51.572;6.578;2022-12-07T00:40:19;12.15;;;6.38;;
31676;SDS011;18385;51.572;6.578;2022-12-07T00:42:44;17.30;;;8.00;;
31676;SDS011;18385;51.572;6.578;2022-12-07T00:45:10;11.73;;;6.15;;
31676;SDS011;18385;51.572;6.578;2022-12-07T00:47:36;12.30;;;6.20;;
31676;SDS011;18385;51.572;6.578;2022-12-07T00:50:01;11.20;;;6.70;;
31676;SDS011;18385;51.572;6.578;2022-12-07T00:52:27;12.75;;;6.30;;
31676;SDS011;18385;51.572;6.578;2022-12-07T00:54:53;12.70;;;6.80;;
31676;SDS011;18385;51.572;6.578;2022-12-07T00:57:19;10.52;;;6.18;;
31676;SDS011;18385;51.572;6.578;2022-12-07T00:59:44;13.23;;;6.70;;
31676;SDS011;18385;51.572;6.578;2022-12-07T01:02:10;13.50;;;6.88;;
31676;SDS011;18385;51.572;6.578;2022-12-07T01:04:36;11.77;;;6.85;;
31676;SDS011;18385;51.572;6.578;2022-12-07T01:07:01;12.05;;;6.68;;
31676;SDS011;18385;51.572;6.578;2022-12-07T01:09:27;13.57;;;7.20;;
31676;SDS011;18385;51.572;6.578;2022-12-07T01:11:53;14.30;;;7.80;;
31676;SDS011;18385;51.572;6.578;2022-12-07T01:14:18;11.70;;;5.75;;
31676;SDS011;18385;51.572;6.578;2022-12-07T01:16:44;11.13;;;5.80;;
31676;SDS011;18385;51.572;6.578;2022-12-07T01:19:09;13.85;;;6.38;;
31676;SDS011;18385;51.572;6.578;2022-12-07T01:21:35;12.02;;;6.90;;
31676;SDS011;18385;51.572;6.578;2022-12-07T01:24:06;14.20;;;7.25;;
31676;SDS011;18385;51.572;6.578;2022-12-07T01:26:34;14.15;;;6.90;;
31676;SDS011;18385;51.572;6.578;2022-12-07T01:28:59;11.32;;;5.97;;
31676;SDS011;18385;51.572;6.578;2022-12-07T01:31:26;13.50;;;6.30;;
31676;SDS011;18385;51.572;6.578;2022-12-07T01:33:53;9.98;;;6.35;;
31676;SDS011;18385;51.572;6.578;2022-12-07T01:36:24;13.65;;;6.78;;
31676;SDS011;18385;51.572;6.578;2022-12-07T01:38:55;11.40;;;6.75;;
31676;SDS011;18385;51.572;6.578;2022-12-07T01:41:27;10.10;;;5.35;;
31676;SDS011;18385;51.572;6.578;2022-12-07T01:46:56;9.95;;;4.95;;
31676;SDS011;18385;51.572;6.578;2022-12-07T01:49:26;9.02;;;5.63;;
31676;SDS011;18385;51.572;6.578;2022-12-07T01:52:02;14.95;;;7.00;;
31676;SDS011;18385;51.572;6.578;2022-12-07T01:54:38;14.93;;;7.57;;
31676;SDS011;18385;51.572;6.578;2022-12-07T01:57:05;16.73;;;7.22;;
31676;SDS011;18385;51.572;6.578;2022-12-07T01:59:32;13.98;;;6.68;;
31676;SDS011;18385;51.572;6.578;2022-12-07T02:01:59;11.07;;;5.93;;
31676;SDS011;18385;51.572;6.578;2022-12-07T02:04:27;13.57;;;6.32;;
31676;SDS011;18385;51.572;6.578;2022-12-07T02:06:53;9.82;;;5.10;;
31676;SDS011;18385;51.572;6.578;2022-12-07T02:09:20;20.35;;;6.30;;
31676;SDS011;18385;51.572;6.578;2022-12-07T02:11:46;11.35;;;6.60;;
31676;SDS011;18385;51.572;6.578;2022-12-07T02:14:12;11.68;;;6.82;;
31676;SDS011;18385;51.572;6.578;2022-12-07T02:16:49;13.68;;;7.10;;
31676;SDS011;18385;51.572;6.578;2022-12-07T02:28:31;11.07;;;5.82;;
31676;SDS011;18385;51.572;6.578;2022-12-07T02:31:14;10.98;;;6.25;;
31676;SDS011;18385;51.572;6.578;2022-12-07T02:33:48;15.57;;;7.05;;
31676;SDS011;18385;51.572;6.578;2022-12-07T02:37:02;11.82;;;6.43;;
31676;SDS011;18385;51.572;6.578;2022-12-07T02:39:14;14.25;;;7.25;;
31676;SDS011;18385;51.572;6.578;2022-12-07T02:41:47;15.65;;;7.60;;
31676;SDS011;18385;51.572;6.578;2022-12-07T02:44:18;10.57;;;6.38;;
31676;SDS011;18385;51.572;6.578;2022-12-07T02:46:58;12.85;;;5.90;;
31676;SDS011;18385;51.572;6.578;2022-12-07T02:49:30;11.30;;;6.13;;
31676;SDS011;18385;51.572;6.578;2022-12-07T02:51:56;15.88;;;6.63;;
31676;SDS011;18385;51.572;6.578;2022-12-07T02:54:22;12.20;;;6.15;;
31676;SDS011;18385;51.572;6.578;2022-12-07T02:56:52;10.40;;;6.82;;
31676;SDS011;18385;51.572;6.578;2022-12-07T03:07:13;12.40;;;6.57;;
31676;SDS011;18385;51.572;6.578;2022-12-07T03:12:25;13.02;;;6.80;;
31676;SDS011;18385;51.572;6.578;2022-12-07T03:15:10;11.80;;;5.85;;
31676;SDS011;18385;51.572;6.578;2022-12-07T03:17:41;9.30;;;3.85;;
31676;SDS011;18385;51.572;6.578;2022-12-07T03:20:09;12.38;;;6.18;;
31676;SDS011;18385;51.572;6.578;2022-12-07T03:22:38;13.73;;;6.70;;
31676;SDS011;18385;51.572;6.578;2022-12-07T03:25:09;13.85;;;6.40;;
31676;SDS011;18385;51.572;6.578;2022-12-07T03:27:38;13.05;;;6.90;;
31676;SDS011;18385;51.572;6.578;2022-12-07T03:30:10;14.48;;;6.03;;
31676;SDS011;18385;51.572;6.578;2022-12-07T03:32:47;15.00;;;6.75;;
31676;SDS011;18385;51.572;6.578;2022-12-07T03:35:24;14.70;;;6.57;;
31676;SDS011;18385;51.572;6.578;2022-12-07T03:37:54;18.73;;;6.90;;
31676;SDS011;18385;51.572;6.578;2022-12-07T03:40:47;12.80;;;7.15;;
31676;SDS011;18385;51.572;6.578;2022-12-07T03:43:27;10.70;;;5.13;;
31676;SDS011;18385;51.572;6.578;2022-12-07T03:46:29;20.25;;;7.45;;
31676;SDS011;18385;51.572;6.578;2022-12-07T03:49:17;14.43;;;6.75;;
31676;SDS011;18385;51.572;6.578;2022-12-07T03:54:49;13.25;;;6.32;;
31676;SDS011;18385;51.572;6.578;2022-12-07T03:57:32;14.30;;;7.43;;
31676;SDS011;18385;51.572;6.578;2022-12-07T03:59:59;16.73;;;7.35;;
31676;SDS011;18385;51.572;6.578;2022-12-07T04:02:37;14.02;;;6.43;;
31676;SDS011;18385;51.572;6.578;2022-12-07T04:05:03;12.77;;;6.28;;
31676;SDS011;18385;51.572;6.578;2022-12-07T04:07:31;13.32;;;6.63;;
31676;SDS011;18385;51.572;6.578;2022-12-07T04:09:56;13.30;;;6.03;;
31676;SDS011;18385;51.572;6.578;2022-12-07T04:12:22;16.35;;;6.47;;
31676;SDS011;18385;51.572;6.578;2022-12-07T04:14:48;18.50;;;6.30;;
31676;SDS011;18385;51.572;6.578;2022-12-07T04:17:14;14.10;;;6.38;;
31676;SDS011;18385;51.572;6.578;2022-12-07T04:19:39;11.93;;;6.07;;
31676;SDS011;18385;51.572;6.578;2022-12-07T04:22:05;14.50;;;7.30;;
31676;SDS011;18385;51.572;6.578;2022-12-07T04:24:31;13.27;;;6.35;;
31676;SDS011;18385;51.572;6.578;2022-12-07T04:26:58;18.77;;;6.55;;
31676;SDS011;18385;51.572;6.578;2022-12-07T04:29:24;9.68;;;5.60;;
31676;SDS011;18385;51.572;6.578;2022-12-07T04:31:49;9.80;;;5.50;;
31676;SDS011;18385;51.572;6.578;2022-12-07T04:34:16;11.95;;;5.93;;
31676;SDS011;18385;51.572;6.578;2022-12-07T04:36:42;13.55;;;6.68;;
31676;SDS011;18385;51.572;6.578;2022-12-07T04:39:13;16.75;;;7.28;;
31676;SDS011;18385;51.572;6.578;2022-12-07T04:41:50;13.52;;;6.45;;
31676;SDS011;18385;51.572;6.578;2022-12-07T04:44:16;12.63;;;6.13;;
31676;SDS011;18385;51.572;6.578;2022-12-07T04:46:42;13.25;;;5.97;;
31676;SDS011;18385;51.572;6.578;2022-12-07T04:49:08;12.50;;;6.53;;
31676;SDS011;18385;51.572;6.578;2022-12-07T04:51:34;13.73;;;6.07;;
31676;SDS011;18385;51.572;6.578;2022-12-07T04:54:00;10.32;;;5.95;;
31676;SDS011;18385;51.572;6.578;2022-12-07T04:56:25;10.65;;;5.50;;
31676;SDS011;18385;51.572;6.578;2022-12-07T04:58:52;9.98;;;5.30;;
31676;SDS011;18385;51.572;6.578;2022-12-07T05:01:19;11.25;;;6.07;;
31676;SDS011;18385;51.572;6.578;2022-12-07T05:03:45;10.15;;;5.57;;
31676;SDS011;18385;51.572;6.578;2022-12-07T05:06:11;12.25;;;6.10;;
31676;SDS011;18385;51.572;6.578;2022-12-07T05:08:38;11.40;;;4.85;;
31676;SDS011;18385;51.572;6.578;2022-12-07T05:11:04;13.52;;;5.82;;
31676;SDS011;18385;51.572;6.578;2022-12-07T05:13:31;11.73;;;5.45;;
31676;SDS011;18385;51.572;6.578;2022-12-07T05:15:57;11.88;;;4.75;;
31676;SDS011;18385;51.572;6.578;2022-12-07T05:18:23;12.73;;;5.40;;
31676;SDS011;18385;51.572;6.578;2022-12-07T05:20:49;10.20;;;5.43;;
31676;SDS011;18385;51.572;6.578;2022-12-07T05:23:18;11.32;;;5.85;;
31676;SDS011;18385;51.572;6.578;2022-12-07T05:25:44;10.90;;;5.38;;
31676;SDS011;18385;51.572;6.578;2022-12-07T05:28:10;10.73;;;5.05;;
31676;SDS011;18385;51.572;6.578;2022-12-07T05:30:35;11.90;;;5.50;;
31676;SDS011;18385;51.572;6.578;2022-12-07T05:33:01;11.18;;;5.00;;
31676;SDS011;18385;51.572;6.578;2022-12-07T05:35:28;11.52;;;5.43;;
31676;SDS011;18385;51.572;6.578;2022-12-07T05:37:54;10.98;;;5.25;;
31676;SDS011;18385;51.572;6.578;2022-12-07T05:40:20;11.13;;;5.50;;
31676;SDS011;18385;51.572;6.578;2022-12-07T05:42:46;9.40;;;4.82;;
31676;SDS011;18385;51.572;6.578;2022-12-07T05:45:11;14.13;;;4.88;;
31676;SDS011;18385;51.572;6.578;2022-12-07T05:47:37;14.05;;;5.53;;
31676;SDS011;18385;51.572;6.578;2022-12-07T05:50:04;10.18;;;4.53;;
31676;SDS011;18385;51.572;6.578;2022-12-07T05:52:30;15.60;;;5.63;;
31676;SDS011;18385;51.572;6.578;2022-12-07T05:54:56;8.93;;;4.22;;
31676;SDS011;18385;51.572;6.578;2022-12-07T05:57:22;8.45;;;4.80;;
31676;SDS011;18385;51.572;6.578;2022-12-07T05:59:48;12.65;;;4.68;;
31676;SDS011;18385;51.572;6.578;2022-12-07T06:02:14;10.20;;;5.43;;
31676;SDS011;18385;51.572;6.578;2022-12-07T06:04:41;15.82;;;5.78;;
31676;SDS011;18385;51.572;6.578;2022-12-07T06:07:09;10.82;;;5.22;;
31676;SDS011;18385;51.572;6.578;2022-12-07T06:09:36;9.00;;;5.45;;
31676;SDS011;18385;51.572;6.578;2022-12-07T06:12:02;10.75;;;3.58;;
31676;SDS011;18385;51.572;6.578;2022-12-07T06:14:47;9.60;;;5.18;;
31676;SDS011;18385;51.572;6.578;2022-12-07T06:17:13;9.85;;;4.88;;
31676;SDS011;18385;51.572;6.578;2022-12-07T06:19:39;15.02;;;5.72;;
31676;SDS011;18385;51.572;6.578;2022-12-07T06:22:05;10.93;;;5.28;;
31676;SDS011;18385;51.572;6.578;2022-12-07T06:24:32;17.98;;;5.35;;
31676;SDS011;18385;51.572;6.578;2022-12-07T06:26:58;9.38;;;5.07;;
31676;SDS011;18385;51.572;6.578;2022-12-07T06:29:24;11.52;;;4.47;;
31676;SDS011;18385;51.572;6.578;2022-12-07T06:31:50;12.90;;;4.97;;
31676;SDS011;18385;51.572;6.578;2022-12-07T06:34:17;14.20;;;5.10;;
31676;SDS011;18385;51.572;6.578;2022-12-07T06:36:44;10.63;;;4.55;;
31676;SDS011;18385;51.572;6.578;2022-12-07T06:39:10;11.30;;;4.72;;
31676;SDS011;18385;51.572;6.578;2022-12-07T06:41:37;8.45;;;4.60;;
31676;SDS011;18385;51.572;6.578;2022-12-07T06:44:03;11.80;;;4.63;;
31676;SDS011;18385;51.572;6.578;2022-12-07T06:46:30;10.32;;;4.85;;
31676;SDS011;18385;51.572;6.578;2022-12-07T06:48:56;12.93;;;4.55;;
31676;SDS011;18385;51.572;6.578;2022-12-07T06:51:21;9.88;;;4.30;;
31676;SDS011;18385;51.572;6.578;2022-12-07T06:53:47;12.85;;;4.90;;
31676;SDS011;18385;51.572;6.578;2022-12-07T06:56:13;10.90;;;4.20;;
31676;SDS011;18385;51.572;6.578;2022-12-07T06:58:39;10.85;;;4.43;;
31676;SDS011;18385;51.572;6.578;2022-12-07T07:01:09;10.85;;;4.03;;
31676;SDS011;18385;51.572;6.578;2022-12-07T07:03:38;11.85;;;4.75;;
31676;SDS011;18385;51.572;6.578;2022-12-07T07:06:04;8.07;;;3.85;;
31676;SDS011;18385;51.572;6.578;2022-12-07T07:08:31;8.52;;;3.97;;
31676;SDS011;18385;51.572;6.578;2022-12-07T07:10:57;9.38;;;4.13;;
31676;SDS011;18385;51.572;6.578;2022-12-07T07:13:22;8.25;;;4.05;;
31676;SDS011;18385;51.572;6.578;2022-12-07T07:15:48;7.32;;;3.55;;
31676;SDS011;18385;51.572;6.578;2022-12-07T07:18:14;6.95;;;3.80;;
31676;SDS011;18385;51.572;6.578;2022-12-07T07:20:39;8.68;;;4.13;;
31676;SDS011;18385;51.572;6.578;2022-12-07T07:23:05;8.07;;;3.83;;
31676;SDS011;18385;51.572;6.578;2022-12-07T07:25:32;8.02;;;3.60;;
31676;SDS011;18385;51.572;6.578;2022-12-07T07:27:58;13.25;;;3.80;;
31676;SDS011;18385;51.572;6.578;2022-12-07T07:30:23;10.35;;;3.22;;
31676;SDS011;18385;51.572;6.578;2022-12-07T07:32:49;6.97;;;3.50;;
31676;SDS011;18385;51.572;6.578;2022-12-07T07:35:15;8.80;;;3.60;;
31676;SDS011;18385;51.572;6.578;2022-12-07T07:37:41;12.82;;;4.03;;
31676;SDS011;18385;51.572;6.578;2022-12-07T07:40:07;15.18;;;3.65;;
31676;SDS011;18385;51.572;6.578;2022-12-07T07:42:33;6.50;;;3.00;;
31676;SDS011;18385;51.572;6.578;2022-12-07T07:44:59;9.65;;;3.45;;
31676;SDS011;18385;51.572;6.578;2022-12-07T07:47:25;7.25;;;3.00;;
31676;SDS011;18385;51.572;6.578;2022-12-07T07:49:52;7.45;;;3.05;;
31676;SDS011;18385;51.572;6.578;2022-12-07T07:52:18;9.07;;;4.10;;
31676;SDS011;18385;51.572;6.578;2022-12-07T07:54:43;9.93;;;2.90;;
31676;SDS011;18385;51.572;6.578;2022-12-07T07:57:09;7.63;;;3.55;;
31676;SDS011;18385;51.572;6.578;2022-12-07T07:59:35;10.02;;;3.80;;
31676;SDS011;18385;51.572;6.578;2022-12-07T08:02:00;5.15;;;2.80;;
31676;SDS011;18385;51.572;6.578;2022-12-07T08:04:26;5.97;;;2.90;;
31676;SDS011;18385;51.572;6.578;2022-12-07T08:06:52;9.65;;;2.95;;
31676;SDS011;18385;51.572;6.578;2022-12-07T08:09:17;8.27;;;2.58;;
31676;SDS011;18385;51.572;6.578;2022-12-07T08:11:45;5.85;;;2.95;;
31676;SDS011;18385;51.572;6.578;2022-12-07T08:14:11;8.82;;;3.97;;
31676;SDS011;18385;51.572;6.578;2022-12-07T08:16:37;11.18;;;2.80;;
31676;SDS011;18385;51.572;6.578;2022-12-07T08:19:04;6.93;;;2.85;;
31676;SDS011;18385;51.572;6.578;2022-12-07T08:21:30;9.75;;;2.80;;
31676;SDS011;18385;51.572;6.578;2022-12-07T08:23:56;6.88;;;3.30;;
31676;SDS011;18385;51.572;6.578;2022-12-07T08:26:22;5.43;;;2.90;;
31676;SDS011;18385;51.572;6.578;2022-12-07T08:28:48;8.13;;;3.50;;
31676;SDS011;18385;51.572;6.578;2022-12-07T08:31:15;9.23;;;3.20;;
31676;SDS011;18385;51.572;6.578;2022-12-07T08:33:44;9.27;;;3.67;;
31676;SDS011;18385;51.572;6.578;2022-12-07T08:36:11;7.97;;;3.40;;
31676;SDS011;18385;51.572;6.578;2022-12-07T08:38:37;8.65;;;3.67;;
31676;SDS011;18385;51.572;6.578;2022-12-07T08:41:04;12.48;;;2.97;;
31676;SDS011;18385;51.572;6.578;2022-12-07T08:43:31;7.43;;;3.33;;
31676;SDS011;18385;51.572;6.578;2022-12-07T08:48:39;6.22;;;3.25;;
31676;SDS011;18385;51.572;6.578;2022-12-07T08:51:09;10.40;;;3.53;;
31676;SDS011;18385;51.572;6.578;2022-12-07T08:53:35;9.93;;;3.10;;
31676;SDS011;18385;51.572;6.578;2022-12-07T08:56:03;7.95;;;3.63;;
31676;SDS011;18385;51.572;6.578;2022-12-07T08:58:29;5.60;;;3.05;;
31676;SDS011;18385;51.572;6.578;2022-12-07T09:00:55;13.73;;;4.00;;
31676;SDS011;18385;51.572;6.578;2022-12-07T09:03:21;6.15;;;2.60;;
31676;SDS011;18385;51.572;6.578;2022-12-07T09:05:47;8.00;;;3.50;;
31676;SDS011;18385;51.572;6.578;2022-12-07T09:08:12;8.00;;;3.13;;
31676;SDS011;18385;51.572;6.578;2022-12-07T09:10:38;6.90;;;3.22;;
31676;SDS011;18385;51.572;6.578;2022-12-07T09:13:04;6.20;;;3.13;;
31676;SDS011;18385;51.572;6.578;2022-12-07T09:15:29;7.82;;;3.22;;
31676;SDS011;18385;51.572;6.578;2022-12-07T09:17:56;9.43;;;3.28;;
31676;SDS011;18385;51.572;6.578;2022-12-07T09:20:21;6.13;;;2.92;;
31676;SDS011;18385;51.572;6.578;2022-12-07T09:22:47;9.00;;;3.88;;
31676;SDS011;18385;51.572;6.578;2022-12-07T09:25:13;7.88;;;2.95;;
31676;SDS011;18385;51.572;6.578;2022-12-07T09:27:39;7.20;;;2.80;;
31676;SDS011;18385;51.572;6.578;2022-12-07T09:30:05;9.38;;;3.17;;
31676;SDS011;18385;51.572;6.578;2022-12-07T09:32:32;11.45;;;3.42;;
31676;SDS011;18385;51.572;6.578;2022-12-07T09:34:58;6.05;;;2.63;;
31676;SDS011;18385;51.572;6.578;2022-12-07T09:37:23;6.47;;;2.70;;
31676;SDS011;18385;51.572;6.578;2022-12-07T09:39:49;8.43;;;3.00;;
31676;SDS011;18385;51.572;6.578;2022-12-07T09:42:26;9.25;;;2.45;;
31676;SDS011;18385;51.572;6.578;2022-12-07T09:45:18;6.50;;;2.85;;
31676;SDS011;18385;51.572;6.578;2022-12-07T09:47:44;4.88;;;2.70;;
31676;SDS011;18385;51.572;6.578;2022-12-07T09:50:12;7.82;;;2.58;;
31676;SDS011;18385;51.572;6.578;2022-12-07T09:52:49;9.70;;;3.25;;
31676;SDS011;18385;51.572;6.578;2022-12-07T09:55:26;8.40;;;2.40;;
31676;SDS011;18385;51.572;6.578;2022-12-07T09:57:54;6.97;;;2.60;;
31676;SDS011;18385;51.572;6.578;2022-12-07T10:00:21;7.47;;;2.88;;
31676;SDS011;18385;51.572;6.578;2022-12-07T10:05:30;6.32;;;2.47;;
31676;SDS011;18385;51.572;6.578;2022-12-07T10:08:01;7.45;;;3.03;;
31676;SDS011;18385;51.572;6.578;2022-12-07T10:10:31;5.78;;;2.15;;
31676;SDS011;18385;51.572;6.578;2022-12-07T10:12:59;6.57;;;3.03;;
31676;SDS011;18385;51.572;6.578;2022-12-07T10:18:38;7.63;;;2.67;;
31676;SDS011;18385;51.572;6.578;2022-12-07T10:23:43;8.57;;;2.40;;
31676;SDS011;18385;51.572;6.578;2022-12-07T10:26:28;8.95;;;1.75;;
31676;SDS011;18385;51.572;6.578;2022-12-07T10:28:54;5.07;;;1.33;;
31676;SDS011;18385;51.572;6.578;2022-12-07T10:31:23;5.40;;;1.75;;
31676;SDS011;18385;51.572;6.578;2022-12-07T10:33:53;6.00;;;1.17;;
31676;SDS011;18385;51.572;6.578;2022-12-07T10:36:23;4.63;;;1.58;;
31676;SDS011;18385;51.572;6.578;2022-12-07T10:44:28;5.28;;;1.95;;
31676;SDS011;18385;51.572;6.578;2022-12-07T10:52:18;4.78;;;1.30;;
31676;SDS011;18385;51.572;6.578;2022-12-07T10:55:13;5.03;;;1.02;;
31676;SDS011;18385;51.572;6.578;2022-12-07T11:08:45;5.72;;;1.30;;
31676;SDS011;18385;51.572;6.578;2022-12-07T11:11:38;3.78;;;1.15;;
31676;SDS011;18385;51.572;6.578;2022-12-07T11:14:36;8.48;;;1.38;;
31676;SDS011;18385;51.572;6.578;2022-12-07T11:17:07;5.03;;;1.02;;
31676;SDS011;18385;51.572;6.578;2022-12-07T11:27:48;3.70;;;1.60;;
31676;SDS011;18385;51.572;6.578;2022-12-07T11:30:27;3.55;;;1.60;;
31676;SDS011;18385;51.572;6.578;2022-12-07T11:33:12;9.25;;;1.80;;
31676;SDS011;18385;51.572;6.578;2022-12-07T11:38:22;5.18;;;1.60;;
31676;SDS011;18385;51.572;6.578;2022-12-07T11:40:55;8.52;;;1.75;;
31676;SDS011;18385;51.572;6.578;2022-12-07T11:43:42;5.28;;;1.98;;
31676;SDS011;18385;51.572;6.578;2022-12-07T11:46:24;4.60;;;1.65;;
31676;SDS011;18385;51.572;6.578;2022-12-07T11:51:42;3.50;;;1.60;;
31676;SDS011;18385;51.572;6.578;2022-12-07T11:54:16;7.38;;;1.80;;
31676;SDS011;18385;51.572;6.578;2022-12-07T11:56:46;6.85;;;1.70;;
31676;SDS011;18385;51.572;6.578;2022-12-07T11:59:31;3.03;;;1.30;;
31676;SDS011;18385;51.572;6.578;2022-12-07T12:05:12;3.40;;;1.40;;
31676;SDS011;18385;51.572;6.578;2022-12-07T12:07:48;6.38;;;1.27;;
31676;SDS011;18385;51.572;6.578;2022-12-07T12:15:55;3.35;;;1.65;;
31676;SDS011;18385;51.572;6.578;2022-12-07T12:18:37;4.10;;;1.35;;
31676;SDS011;18385;51.572;6.578;2022-12-07T12:21:19;4.32;;;1.55;;
31676;SDS011;18385;51.572;6.578;2022-12-07T12:23:54;4.50;;;1.60;;
31676;SDS011;18385;51.572;6.578;2022-12-07T12:26:24;5.65;;;1.50;;
31676;SDS011;18385;51.572;6.578;2022-12-07T12:34:01;5.35;;;1.20;;
31676;SDS011;18385;51.572;6.578;2022-12-07T12:39:17;3.50;;;1.15;;
31676;SDS011;18385;51.572;6.578;2022-12-07T12:51:45;4.43;;;1.25;;
31676;SDS011;18385;51.572;6.578;2022-12-07T12:54:24;4.53;;;1.10;;
31676;SDS011;18385;51.572;6.578;2022-12-07T13:02:50;4.70;;;1.25;;
31676;SDS011;18385;51.572;6.578;2022-12-07T13:05:22;4.80;;;1.17;;
31676;SDS011;18385;51.572;6.578;2022-12-07T13:07:51;3.83;;;1.23;;
31676;SDS011;18385;51.572;6.578;2022-12-07T13:10:21;3.70;;;1.15;;
31676;SDS011;18385;51.572;6.578;2022-12-07T13:13:00;2.28;;;1.17;;
31676;SDS011;18385;51.572;6.578;2022-12-07T13:15:51;2.30;;;0.77;;
31676;SDS011;18385;51.572;6.578;2022-12-07T13:20:54;1.98;;;0.80;;
31676;SDS011;18385;51.572;6.578;2022-12-07T13:31:36;5.63;;;1.10;;
31676;SDS011;18385;51.572;6.578;2022-12-07T13:34:34;4.18;;;0.88;;
31676;SDS011;18385;51.572;6.578;2022-12-07T13:39:58;4.72;;;1.00;;
31676;SDS011;18385;51.572;6.578;2022-12-07T13:42:33;3.58;;;1.08;;
31676;SDS011;18385;51.572;6.578;2022-12-07T13:45:00;6.43;;;0.98;;
31676;SDS011;18385;51.572;6.578;2022-12-07T13:47:52;4.10;;;0.80;;
31676;SDS011;18385;51.572;6.578;2022-12-07T13:50:28;2.60;;;0.82;;
31676;SDS011;18385;51.572;6.578;2022-12-07T13:52:56;2.22;;;0.70;;
31676;SDS011;18385;51.572;6.578;2022-12-07T13:55:23;4.72;;;1.10;;
31676;SDS011;18385;51.572;6.578;2022-12-07T13:57:50;6.60;;;1.40;;
31676;SDS011;18385;51.572;6.578;2022-12-07T14:00:18;2.25;;;1.02;;
31676;SDS011;18385;51.572;6.578;2022-12-07T14:02:56;5.15;;;1.17;;
31676;SDS011;18385;51.572;6.578;2022-12-07T14:05:25;5.75;;;1.70;;
31676;SDS011;18385;51.572;6.578;2022-12-07T14:07:59;2.40;;;0.90;;
31676;SDS011;18385;51.572;6.578;2022-12-07T14:10:31;4.00;;;1.55;;
31676;SDS011;18385;51.572;6.578;2022-12-07T14:13:02;6.00;;;1.67;;
31676;SDS011;18385;51.572;6.578;2022-12-07T14:15:29;4.88;;;1.80;;
31676;SDS011;18385;51.572;6.578;2022-12-07T14:17:57;6.07;;;1.83;;
31676;SDS011;18385;51.572;6.578;2022-12-07T14:20:35;3.72;;;1.63;;
31676;SDS011;18385;51.572;6.578;2022-12-07T14:23:05;7.45;;;1.38;;
31676;SDS011;18385;51.572;6.578;2022-12-07T14:25:51;7.97;;;1.75;;
31676;SDS011;18385;51.572;6.578;2022-12-07T14:28:28;6.32;;;1.10;;
31676;SDS011;18385;51.572;6.578;2022-12-07T14:30:58;2.35;;;0.95;;
31676;SDS011;18385;51.572;6.578;2022-12-07T14:33:25;2.25;;;0.63;;
31676;SDS011;18385;51.572;6.578;2022-12-07T14:35:52;10.63;;;2.65;;
31676;SDS011;18385;51.572;6.578;2022-12-07T14:38:21;4.00;;;0.98;;
31676;SDS011;18385;51.572;6.578;2022-12-07T14:40:47;3.40;;;0.70;;
31676;SDS011;18385;51.572;6.578;2022-12-07T14:43:14;4.18;;;1.08;;
31676;SDS011;18385;51.572;6.578;2022-12-07T14:45:42;5.45;;;1.10;;
31676;SDS011;18385;51.572;6.578;2022-12-07T14:48:11;2.75;;;1.25;;
31676;SDS011;18385;51.572;6.578;2022-12-07T14:50:45;7.43;;;1.25;;
31676;SDS011;18385;51.572;6.578;2022-12-07T14:53:17;3.30;;;1.20;;
31676;SDS011;18385;51.572;6.578;2022-12-07T14:55:54;5.63;;;1.42;;
31676;SDS011;18385;51.572;6.578;2022-12-07T14:58:19;4.80;;;1.17;;
31676;SDS011;18385;51.572;6.578;2022-12-07T15:00:45;4.32;;;1.35;;
31676;SDS011;18385;51.572;6.578;2022-12-07T15:03:12;3.63;;;0.73;;
31676;SDS011;18385;51.572;6.578;2022-12-07T15:05:38;3.80;;;1.58;;
31676;SDS011;18385;51.572;6.578;2022-12-07T15:08:05;5.25;;;1.27;;
31676;SDS011;18385;51.572;6.578;2022-12-07T15:10:32;4.78;;;1.85;;
31676;SDS011;18385;51.572;6.578;2022-12-07T15:12:58;5.20;;;1.33;;
31676;SDS011;18385;51.572;6.578;2022-12-07T15:15:45;5.65;;;1.33;;
31676;SDS011;18385;51.572;6.578;2022-12-07T15:18:11;6.28;;;2.67;;
31676;SDS011;18385;51.572;6.578;2022-12-07T15:20:37;4.97;;;1.33;;
31676;SDS011;18385;51.572;6.578;2022-12-07T15:23:03;5.85;;;1.73;;
31676;SDS011;18385;51.572;6.578;2022-12-07T15:25:29;3.38;;;1.60;;
31676;SDS011;18385;51.572;6.578;2022-12-07T15:27:55;6.55;;;2.10;;
31676;SDS011;18385;51.572;6.578;2022-12-07T15:30:21;6.70;;;1.85;;
31676;SDS011;18385;51.572;6.578;2022-12-07T15:32:52;5.03;;;2.50;;
31676;SDS011;18385;51.572;6.578;2022-12-07T15:35:18;5.15;;;2.08;;
31676;SDS011;18385;51.572;6.578;2022-12-07T15:37:45;6.18;;;1.88;;
31676;SDS011;18385;51.572;6.578;2022-12-07T15:40:11;4.85;;;2.08;;
31676;SDS011;18385;51.572;6.578;2022-12-07T15:42:37;4.93;;;1.55;;
31676;SDS011;18385;51.572;6.578;2022-12-07T15:45:04;6.50;;;1.90;;
31676;SDS011;18385;51.572;6.578;2022-12-07T15:47:31;4.47;;;1.70;;
31676;SDS011;18385;51.572;6.578;2022-12-07T15:50:01;4.90;;;1.20;;
31676;SDS011;18385;51.572;6.578;2022-12-07T15:52:28;6.10;;;1.45;;
31676;SDS011;18385;51.572;6.578;2022-12-07T15:54:53;5.05;;;1.45;;
31676;SDS011;18385;51.572;6.578;2022-12-07T15:57:19;5.13;;;1.50;;
31676;SDS011;18385;51.572;6.578;2022-12-07T15:59:45;4.45;;;1.02;;
31676;SDS011;18385;51.572;6.578;2022-12-07T16:02:11;2.65;;;0.80;;
31676;SDS011;18385;51.572;6.578;2022-12-07T16:04:38;2.45;;;0.90;;
31676;SDS011;18385;51.572;6.578;2022-12-07T16:07:04;5.32;;;0.90;;
31676;SDS011;18385;51.572;6.578;2022-12-07T16:09:30;3.53;;;0.88;;
31676;SDS011;18385;51.572;6.578;2022-12-07T16:11:56;3.28;;;0.85;;
31676;SDS011;18385;51.572;6.578;2022-12-07T16:14:22;3.78;;;0.80;;
31676;SDS011;18385;51.572;6.578;2022-12-07T16:16:48;4.43;;;1.13;;
31676;SDS011;18385;51.572;6.578;2022-12-07T16:19:14;5.07;;;1.00;;
31676;SDS011;18385;51.572;6.578;2022-12-07T16:21:40;4.88;;;1.40;;
31676;SDS011;18385;51.572;6.578;2022-12-07T16:24:06;3.17;;;1.05;;
31676;SDS011;18385;51.572;6.578;2022-12-07T16:26:32;4.60;;;1.08;;
31676;SDS011;18385;51.572;6.578;2022-12-07T16:28:58;5.53;;;1.30;;
31676;SDS011;18385;51.572;6.578;2022-12-07T16:31:24;2.47;;;1.13;;
31676;SDS011;18385;51.572;6.578;2022-12-07T16:33:56;6.25;;;1.20;;
31676;SDS011;18385;51.572;6.578;2022-12-07T16:36:23;6.07;;;1.55;;
31676;SDS011;18385;51.572;6.578;2022-12-07T16:38:52;6.13;;;1.05;;
31676;SDS011;18385;51.572;6.578;2022-12-07T16:41:18;3.03;;;1.05;;
31676;SDS011;18385;51.572;6.578;2022-12-07T16:43:43;4.28;;;1.02;;
31676;SDS011;18385;51.572;6.578;2022-12-07T16:46:09;7.88;;;1.15;;
31676;SDS011;18385;51.572;6.578;2022-12-07T16:48:36;2.55;;;1.08;;
31676;SDS011;18385;51.572;6.578;2022-12-07T16:51:04;4.15;;;1.20;;
31676;SDS011;18385;51.572;6.578;2022-12-07T16:53:31;3.10;;;1.10;;
31676;SDS011;18385;51.572;6.578;2022-12-07T16:55:57;2.75;;;1.35;;
31676;SDS011;18385;51.572;6.578;2022-12-07T16:58:22;2.22;;;0.68;;